createdAt,value
2023-05-01T00:03:34.453Z,4.20
2023-05-01T00:08:19.780Z,4.10
2023-05-01T00:13:04.560Z,4.10
2023-05-01T00:17:55.108Z,4.10
2023-05-01T00:22:41.474Z,4.10
2023-05-01T00:27:48.550Z,4.00
2023-05-01T00:32:35.036Z,4.00
2023-05-01T00:37:20.862Z,4.10
2023-05-01T00:42:11.403Z,4.00
2023-05-01T00:47:02.400Z,4.00
2023-05-01T00:51:49.758Z,4.00
2023-05-01T00:56:33.821Z,4.00
2023-05-01T01:01:21.748Z,3.90
2023-05-01T01:06:15.830Z,3.90
2023-05-01T01:11:29.474Z,3.80
2023-05-01T01:16:23.161Z,3.80
2023-05-01T01:21:22.889Z,3.80
2023-05-01T01:26:29.112Z,3.50
2023-05-01T01:31:19.117Z,3.30
2023-05-01T01:36:17.177Z,3.10
2023-05-01T01:41:11.334Z,2.90
2023-05-01T01:46:10.626Z,2.60
2023-05-01T01:50:59.331Z,2.50
2023-05-01T01:55:49.020Z,2.40
2023-05-01T02:00:34.979Z,2.30
2023-05-01T02:05:23.784Z,2.10
2023-05-01T02:10:14.255Z,2.00
2023-05-01T02:15:01.082Z,1.80
2023-05-01T02:19:46.493Z,1.60
2023-05-01T02:24:34.656Z,1.60
2023-05-01T02:29:20.180Z,1.40
2023-05-01T02:34:10.654Z,1.40
2023-05-01T02:38:58.381Z,1.30
2023-05-01T02:43:47.106Z,1.30
2023-05-01T02:48:34.766Z,1.30
2023-05-01T02:53:23.049Z,1.30
2023-05-01T02:58:23.692Z,1.20
2023-05-01T03:03:13.443Z,1.10
2023-05-01T03:08:01.544Z,1.10
2023-05-01T03:12:50.190Z,1.00
2023-05-01T03:17:39.780Z,1.00
2023-05-01T03:22:24.555Z,1.00
2023-05-01T03:27:12.982Z,1.20
2023-05-01T03:32:00.562Z,1.40
2023-05-01T03:36:53.906Z,1.90
2023-05-01T03:41:39.509Z,2.00
2023-05-01T03:46:47.377Z,2.20
2023-05-01T03:51:47.671Z,2.50
2023-05-01T03:56:35.737Z,2.70
2023-05-01T04:01:24.401Z,2.80
2023-05-01T04:06:09.774Z,2.80
2023-05-01T04:10:57.917Z,2.90
2023-05-01T04:15:46.876Z,3.00
2023-05-01T04:20:34.192Z,3.20
2023-05-01T04:25:24.015Z,3.50
2023-05-01T04:30:13.659Z,3.80
2023-05-01T04:34:57.817Z,4.10
2023-05-01T04:39:47.721Z,4.50
2023-05-01T04:44:36.023Z,5.00
2023-05-01T04:49:22.763Z,5.30
2023-05-01T04:54:09.389Z,5.60
2023-05-01T04:58:57.772Z,6.00
2023-05-01T05:03:47.257Z,6.30
2023-05-01T05:08:35.002Z,6.60
2023-05-01T05:13:35.739Z,6.80
2023-05-01T05:18:25.949Z,6.90
2023-05-01T05:23:30.946Z,7.00
2023-05-01T05:28:18.579Z,7.40
2023-05-01T05:33:09.606Z,7.60
2023-05-01T05:37:53.692Z,7.90
2023-05-01T05:42:42.806Z,8.20
2023-05-01T05:47:32.528Z,8.70
2023-05-01T05:52:16.803Z,9.30
2023-05-01T05:57:10.059Z,9.50
2023-05-01T06:02:08.771Z,9.70
2023-05-01T06:07:01.697Z,10.20
2023-05-01T06:11:45.328Z,10.50
2023-05-01T06:16:36.388Z,10.70
2023-05-01T06:21:23.074Z,10.70
2023-05-01T06:26:10.840Z,10.60
2023-05-01T06:30:57.745Z,10.80
2023-05-01T06:35:46.789Z,10.90
2023-05-01T06:40:34.959Z,11.00
2023-05-01T06:45:23.558Z,11.30
2023-05-01T06:50:14.135Z,11.90
2023-05-01T06:55:12.750Z,12.30
2023-05-01T07:00:02.280Z,12.60
2023-05-01T07:04:50.740Z,13.10
2023-05-01T07:09:37.735Z,13.40
2023-05-01T07:14:27.304Z,13.90
2023-05-01T07:19:13.819Z,14.20
2023-05-01T07:24:24.032Z,14.50
2023-05-01T07:29:21.489Z,14.90
2023-05-01T07:34:08.529Z,15.10
2023-05-01T07:38:58.023Z,15.30
2023-05-01T07:43:46.656Z,15.30
2023-05-01T07:48:34.106Z,15.30
2023-05-01T07:53:20.352Z,15.60
2023-05-01T07:58:10.897Z,15.80
2023-05-01T08:02:59.704Z,16.10
2023-05-01T08:07:47.506Z,16.10
2023-05-01T08:12:33.148Z,16.40
2023-05-01T08:17:53.547Z,16.80
2023-05-01T08:23:03.818Z,17.20
2023-05-01T08:27:47.556Z,17.50
2023-05-01T08:32:34.978Z,17.80
2023-05-01T08:37:22.153Z,18.00
2023-05-01T08:42:12.029Z,18.10
2023-05-01T08:47:12.659Z,18.30
2023-05-01T08:52:03.418Z,18.30
2023-05-01T08:56:55.008Z,18.50
2023-05-01T09:01:41.169Z,19.10
2023-05-01T09:06:40.336Z,19.00
2023-05-01T09:11:32.372Z,18.90
2023-05-01T09:16:17.486Z,19.40
2023-05-01T09:21:05.327Z,19.30
2023-05-01T09:25:59.153Z,19.70
2023-05-01T09:30:43.045Z,20.20
2023-05-01T09:35:33.147Z,20.10
2023-05-01T09:40:18.651Z,20.10
2023-05-01T09:45:07.808Z,19.80
2023-05-01T09:49:53.954Z,19.60
2023-05-01T09:54:44.579Z,19.40
2023-05-01T09:59:44.355Z,20.00
2023-05-01T10:04:35.110Z,20.10
2023-05-01T10:09:35.528Z,20.30
2023-05-01T10:14:27.046Z,20.80
2023-05-01T10:19:18.131Z,21.10
2023-05-01T10:24:06.185Z,20.70
2023-05-01T10:28:53.736Z,21.20
2023-05-01T10:33:37.541Z,21.40
2023-05-01T10:38:39.424Z,20.90
2023-05-01T10:43:30.355Z,21.00
2023-05-01T10:48:52.976Z,20.90
2023-05-01T10:53:39.153Z,21.00
2023-05-01T10:58:58.115Z,21.10
2023-05-01T11:03:47.687Z,20.90
2023-05-01T11:08:33.865Z,20.60
2023-05-01T11:13:57.571Z,20.30
2023-05-01T11:18:59.193Z,20.80
2023-05-01T11:23:48.961Z,21.30
2023-05-01T11:28:40.078Z,21.30
2023-05-01T11:33:37.508Z,21.30
2023-05-01T11:38:25.425Z,22.70
2023-05-01T11:43:15.236Z,23.40
2023-05-01T11:48:17.673Z,23.00
2023-05-01T11:53:06.527Z,22.90
2023-05-01T11:57:58.777Z,22.50
2023-05-01T12:02:43.235Z,21.50
2023-05-01T12:07:46.204Z,21.90
2023-05-01T12:12:37.193Z,22.40
2023-05-01T12:17:21.721Z,23.00
2023-05-01T12:22:11.272Z,23.20
2023-05-01T12:27:14.973Z,23.40
2023-05-01T12:32:01.379Z,23.20
2023-05-01T12:36:55.199Z,23.30
2023-05-01T12:41:40.662Z,23.50
2023-05-01T12:46:26.257Z,22.90
2023-05-01T12:51:19.180Z,23.10
2023-05-01T12:56:03.480Z,22.90
2023-05-01T13:00:51.874Z,22.80
2023-05-01T13:05:37.293Z,22.90
2023-05-01T13:10:40.017Z,22.90
2023-05-01T13:15:34.006Z,22.90
2023-05-01T13:20:31.700Z,23.30
2023-05-01T13:25:25.702Z,23.40
2023-05-01T13:30:11.415Z,23.60
2023-05-01T13:35:01.512Z,24.10
2023-05-01T13:39:49.114Z,23.70
2023-05-01T13:44:34.597Z,23.40
2023-05-01T13:49:23.010Z,23.10
2023-05-01T13:54:09.239Z,22.90
2023-05-01T13:58:57.029Z,22.40
2023-05-01T14:03:44.978Z,22.30
2023-05-01T14:08:38.274Z,22.20
2023-05-01T14:13:25.209Z,22.50
2023-05-01T14:18:09.972Z,22.40
2023-05-01T14:23:15.343Z,22.40
2023-05-01T14:28:02.529Z,22.60
2023-05-01T14:32:48.857Z,22.40
2023-05-01T14:37:40.501Z,22.20
2023-05-01T14:42:26.525Z,21.80
2023-05-01T14:47:14.996Z,21.10
2023-05-01T14:52:01.558Z,20.90
2023-05-01T14:56:51.077Z,20.60
2023-05-01T15:01:54.329Z,20.70
2023-05-01T15:06:43.933Z,20.70
2023-05-01T15:11:30.602Z,20.50
2023-05-01T15:16:16.578Z,20.60
2023-05-01T15:21:04.539Z,20.50
2023-05-01T15:25:53.425Z,20.50
2023-05-01T15:30:45.890Z,20.20
2023-05-01T15:35:29.497Z,19.60
2023-05-01T15:40:23.205Z,19.30
2023-05-01T15:45:08.245Z,19.40
2023-05-01T15:49:54.651Z,19.50
2023-05-01T15:54:47.225Z,19.40
2023-05-01T15:59:32.372Z,19.40
2023-05-01T16:04:18.031Z,19.50
2023-05-01T16:09:05.626Z,19.00
2023-05-01T16:13:56.061Z,19.10
2023-05-01T16:18:43.315Z,18.70
2023-05-01T16:23:30.042Z,18.60
2023-05-01T16:28:19.983Z,18.40
2023-05-01T16:33:06.812Z,17.90
2023-05-01T16:37:54.226Z,17.70
2023-05-01T16:42:40.864Z,17.60
2023-05-01T16:47:33.229Z,17.50
2023-05-01T16:52:17.861Z,17.40
2023-05-01T16:57:05.686Z,17.20
2023-05-01T17:01:54.322Z,17.00
2023-05-01T17:06:41.140Z,16.90
2023-05-01T17:11:31.973Z,16.80
2023-05-01T17:16:20.061Z,16.60
2023-05-01T17:21:06.917Z,16.40
2023-05-01T17:25:52.298Z,16.20
2023-05-01T17:30:41.594Z,16.00
2023-05-01T17:35:29.086Z,15.70
2023-05-01T17:40:18.702Z,15.50
2023-05-01T17:45:10.103Z,15.40
2023-05-01T17:49:56.690Z,15.20
2023-05-01T17:54:42.283Z,15.00
2023-05-01T17:59:30.711Z,14.80
2023-05-01T18:04:20.174Z,14.50
2023-05-01T18:09:08.702Z,14.40
2023-05-01T18:13:53.650Z,14.20
2023-05-01T18:18:44.732Z,14.10
2023-05-01T18:23:29.321Z,14.00
2023-05-01T18:28:18.582Z,13.90
2023-05-01T18:33:34.743Z,13.80
2023-05-01T18:38:26.316Z,13.80
2023-05-01T18:43:14.227Z,13.70
2023-05-01T18:48:01.703Z,13.70
2023-05-01T18:52:51.611Z,13.70
2023-05-01T18:57:38.491Z,13.70
2023-05-01T19:02:28.409Z,13.70
2023-05-01T19:07:13.941Z,13.70
2023-05-01T19:12:01.137Z,13.70
2023-05-01T19:16:51.599Z,13.70
2023-05-01T19:21:38.316Z,13.90
2023-05-01T19:26:29.391Z,13.90
2023-05-01T19:31:14.989Z,13.90
2023-05-01T19:36:01.612Z,14.00
2023-05-01T19:40:50.962Z,14.10
2023-05-01T19:45:38.682Z,14.00
2023-05-01T19:51:10.838Z,14.00
2023-05-01T19:56:05.383Z,13.90
2023-05-01T20:00:48.965Z,13.80
2023-05-01T20:05:43.081Z,13.50
2023-05-01T20:10:27.150Z,13.30
2023-05-01T20:15:17.269Z,13.00
2023-05-01T22:52:22.281Z,11.10
2023-05-01T23:11:43.956Z,11.30
2023-05-01T23:40:23.196Z,11.20
2023-05-01T23:45:35.787Z,11.20
2023-05-01T23:50:45.001Z,11.10
2023-05-01T23:55:34.309Z,11.10
